createdAt,value
2019-03-22T00:00:47.777Z,31.85
2019-03-22T00:01:34.208Z,28.62
2019-03-22T00:02:20.822Z,31.40
2019-03-22T00:03:07.180Z,32.98
2019-03-22T00:03:53.904Z,30.70
2019-03-22T00:04:40.675Z,29.18
2019-03-22T00:05:27.392Z,30.55
2019-03-22T00:06:14.199Z,31.10
2019-03-22T00:07:00.737Z,30.65
2019-03-22T00:07:48.606Z,32.50
2019-03-22T00:08:35.564Z,31.27
2019-03-22T00:09:22.039Z,31.52
2019-03-22T00:10:08.768Z,31.57
2019-03-22T00:10:55.241Z,32.10
2019-03-22T00:11:41.920Z,31.12
2019-03-22T00:12:28.501Z,32.58
2019-03-22T00:13:14.743Z,31.97
2019-03-22T00:14:00.989Z,31.95
2019-03-22T00:14:47.411Z,32.63
2019-03-22T00:15:34.051Z,33.23
2019-03-22T00:16:20.679Z,32.50
2019-03-22T00:17:06.910Z,31.62
2019-03-22T00:17:53.598Z,31.42
2019-03-22T00:18:39.960Z,33.25
2019-03-22T00:19:26.577Z,32.33
2019-03-22T00:20:12.963Z,31.65
2019-03-22T00:20:59.674Z,32.98
2019-03-22T00:21:46.336Z,31.52
2019-03-22T00:22:33.026Z,33.85
2019-03-22T00:23:19.798Z,34.05
2019-03-22T00:24:06.342Z,32.95
2019-03-22T00:24:52.790Z,36.13
2019-03-22T00:25:39.532Z,34.45
2019-03-22T00:26:25.804Z,36.48
2019-03-22T00:27:16.687Z,35.03
2019-03-22T00:28:00.396Z,33.85
2019-03-22T00:28:47.060Z,33.78
2019-03-22T00:29:33.307Z,34.67
2019-03-22T00:30:19.588Z,35.60
2019-03-22T00:31:05.870Z,33.63
2019-03-22T00:31:52.139Z,35.73
2019-03-22T00:32:38.507Z,35.92
2019-03-22T00:33:24.847Z,34.98
2019-03-22T00:34:11.575Z,35.38
2019-03-22T00:34:57.975Z,34.45
2019-03-22T00:35:44.780Z,34.85
2019-03-22T00:36:31.607Z,35.25
2019-03-22T00:37:18.016Z,35.33
2019-03-22T00:38:04.555Z,35.63
2019-03-22T00:38:51.481Z,35.80
2019-03-22T00:39:38.112Z,32.42
2019-03-22T00:40:24.459Z,33.08
2019-03-22T00:41:10.730Z,34.55
2019-03-22T00:41:57.516Z,33.50
2019-03-22T00:42:43.953Z,33.78
2019-03-22T00:43:30.627Z,32.03
2019-03-22T00:44:16.795Z,34.80
2019-03-22T00:45:03.303Z,34.55
2019-03-22T00:45:49.810Z,33.45
2019-03-22T00:46:35.948Z,35.08
2019-03-22T00:47:22.224Z,33.08
2019-03-22T00:48:08.424Z,33.55
2019-03-22T00:48:55.280Z,37.75
2019-03-22T00:49:41.712Z,35.20
2019-03-22T00:50:27.962Z,34.80
2019-03-22T00:51:14.624Z,35.40
2019-03-22T00:52:01.361Z,33.55
2019-03-22T00:52:48.018Z,33.92
2019-03-22T00:53:34.311Z,38.10
2019-03-22T00:54:20.503Z,34.10
2019-03-22T00:55:07.504Z,33.92
2019-03-22T00:55:53.944Z,34.70
2019-03-22T00:56:40.159Z,34.23
2019-03-22T00:57:28.793Z,33.33
2019-03-22T00:58:15.119Z,32.90
2019-03-22T00:59:01.773Z,33.60
2019-03-22T00:59:48.390Z,34.53
2019-03-22T01:00:35.226Z,35.28
2019-03-22T01:01:21.789Z,35.50
2019-03-22T01:02:08.519Z,35.35
2019-03-22T01:02:54.738Z,37.50
2019-03-22T01:03:40.911Z,37.25
2019-03-22T01:04:27.186Z,35.58
2019-03-22T01:05:14.773Z,35.03
2019-03-22T01:06:01.035Z,33.90
2019-03-22T01:06:47.858Z,35.05
2019-03-22T01:07:34.140Z,33.70
2019-03-22T01:08:20.407Z,33.38
2019-03-22T01:09:06.661Z,36.35
2019-03-22T01:09:52.950Z,36.98
2019-03-22T01:10:39.323Z,34.75
2019-03-22T01:11:26.081Z,35.00
2019-03-22T01:12:12.371Z,33.78
2019-03-22T01:12:59.092Z,34.05
2019-03-22T01:13:45.347Z,33.95
2019-03-22T01:14:31.670Z,34.85
2019-03-22T01:15:18.063Z,35.63
2019-03-22T01:16:04.979Z,33.30
2019-03-22T01:16:51.913Z,35.00
2019-03-22T01:17:38.619Z,35.95
2019-03-22T01:18:24.991Z,33.25
2019-03-22T01:19:11.745Z,35.13
2019-03-22T01:19:58.601Z,34.80
2019-03-22T01:20:45.327Z,33.10
2019-03-22T01:21:32.307Z,34.58
2019-03-22T01:22:19.038Z,33.10
2019-03-22T01:23:05.787Z,36.03
2019-03-22T01:23:52.667Z,34.18
2019-03-22T01:24:38.881Z,36.03
2019-03-22T01:25:25.600Z,36.60
2019-03-22T01:26:12.269Z,34.35
2019-03-22T01:26:58.550Z,36.65
2019-03-22T01:27:45.329Z,35.78
2019-03-22T01:28:31.937Z,35.13
2019-03-22T01:29:18.166Z,37.80
2019-03-22T01:30:05.832Z,35.03
2019-03-22T01:30:52.646Z,34.60
2019-03-22T01:31:39.232Z,33.42
2019-03-22T01:32:25.947Z,35.08
2019-03-22T01:33:12.616Z,35.58
2019-03-22T01:33:59.601Z,32.58
2019-03-22T01:34:46.249Z,32.67
2019-03-22T01:35:32.796Z,33.85
2019-03-22T01:36:19.023Z,34.63
2019-03-22T01:37:05.224Z,32.58
2019-03-22T01:37:51.452Z,33.02
2019-03-22T01:38:38.154Z,32.42
2019-03-22T01:39:24.530Z,33.55
2019-03-22T01:40:11.814Z,36.10
2019-03-22T01:40:58.362Z,34.43
2019-03-22T01:41:44.608Z,36.03
2019-03-22T01:42:31.278Z,35.23
2019-03-22T01:43:17.491Z,35.00
2019-03-22T01:44:03.738Z,33.10
2019-03-22T01:44:50.443Z,34.10
2019-03-22T01:45:39.630Z,33.50
2019-03-22T01:46:26.436Z,33.38
2019-03-22T01:47:12.559Z,32.60
2019-03-22T01:47:58.793Z,32.08
2019-03-22T01:48:45.082Z,32.93
2019-03-22T01:49:31.705Z,32.85
2019-03-22T01:50:18.286Z,34.08
2019-03-22T01:51:04.590Z,32.95
2019-03-22T01:51:51.229Z,34.15
2019-03-22T01:56:59.550Z,29.67
2019-03-22T01:57:53.130Z,32.98
2019-03-22T01:58:34.736Z,34.78
2019-03-22T01:59:21.435Z,33.23
2019-03-22T02:00:08.748Z,31.65
2019-03-22T02:00:55.016Z,34.78
2019-03-22T02:03:31.168Z,31.65
2019-03-22T02:04:17.665Z,32.80
2019-03-22T02:05:05.562Z,31.68
2019-03-22T02:05:52.386Z,31.33
2019-03-22T02:06:38.648Z,31.97
2019-03-22T02:07:24.963Z,32.08
2019-03-22T02:08:11.212Z,32.95
2019-03-22T02:08:57.589Z,33.75
2019-03-22T02:09:43.997Z,32.20
2019-03-22T02:10:30.743Z,35.78
2019-03-22T02:11:17.592Z,32.25
2019-03-22T02:12:04.397Z,31.35
2019-03-22T02:12:50.706Z,32.33
2019-03-22T02:13:37.026Z,30.95
2019-03-22T02:14:23.247Z,34.70
2019-03-22T02:15:12.146Z,31.87
2019-03-22T02:15:58.773Z,35.38
2019-03-22T02:16:45.118Z,32.60
2019-03-22T02:17:31.988Z,31.90
2019-03-22T02:18:18.742Z,32.33
2019-03-22T02:19:05.031Z,31.30
2019-03-22T02:19:51.880Z,32.23
2019-03-22T02:20:38.721Z,30.90
2019-03-22T02:21:25.386Z,33.15
2019-03-22T02:22:11.568Z,31.02
2019-03-22T02:22:57.871Z,32.33
2019-03-22T02:23:44.591Z,31.20
2019-03-22T02:24:31.409Z,30.77
2019-03-22T02:25:17.912Z,31.20
2019-03-22T02:26:04.109Z,32.78
2019-03-22T02:26:50.368Z,31.93
2019-03-22T02:27:36.564Z,32.10
2019-03-22T02:28:23.529Z,32.03
2019-03-22T02:29:10.037Z,30.40
2019-03-22T02:29:56.244Z,32.00
2019-03-22T02:30:42.446Z,31.75
2019-03-22T02:31:28.681Z,32.10
2019-03-22T02:32:14.833Z,32.70
2019-03-22T02:33:01.194Z,32.38
2019-03-22T02:33:47.823Z,31.15
2019-03-22T02:34:33.992Z,34.23
2019-03-22T02:35:28.970Z,33.18
2019-03-22T02:36:08.441Z,30.97
2019-03-22T02:36:54.602Z,31.73
2019-03-22T02:37:41.497Z,32.50
2019-03-22T02:38:28.162Z,31.42
2019-03-22T02:39:14.429Z,33.15
2019-03-22T02:40:01.123Z,34.75
2019-03-22T02:40:47.847Z,34.25
2019-03-22T02:41:34.419Z,31.48
2019-03-22T02:42:20.901Z,32.48
2019-03-22T02:43:07.130Z,32.78
2019-03-22T02:43:54.915Z,33.60
2019-03-22T02:44:41.750Z,32.13
2019-03-22T02:45:27.978Z,32.53
2019-03-22T02:46:14.250Z,34.45
2019-03-22T02:47:01.069Z,34.33
2019-03-22T02:47:47.804Z,32.75
2019-03-22T02:48:34.590Z,31.73
2019-03-22T02:49:20.917Z,33.10
2019-03-22T02:50:18.099Z,31.25
2019-03-22T02:50:56.544Z,32.75
2019-03-22T02:51:43.301Z,33.18
2019-03-22T02:52:29.578Z,31.85
2019-03-22T02:53:15.974Z,30.23
2019-03-22T02:54:02.281Z,31.45
2019-03-22T02:54:49.170Z,33.30
2019-03-22T02:55:35.868Z,31.57
2019-03-22T02:56:22.136Z,30.12
2019-03-22T02:57:08.455Z,32.95
2019-03-22T02:57:55.425Z,31.02
2019-03-22T02:58:42.173Z,33.53
2019-03-22T02:59:28.667Z,34.05
2019-03-22T03:00:15.703Z,31.48
2019-03-22T03:01:02.386Z,33.83
2019-03-22T03:01:49.162Z,32.98
2019-03-22T03:02:35.550Z,32.75
2019-03-22T03:03:21.933Z,32.00
2019-03-22T03:04:08.215Z,31.17
2019-03-22T03:04:55.148Z,33.08
2019-03-22T03:05:41.891Z,30.88
2019-03-22T03:06:28.100Z,32.78
2019-03-22T03:07:15.709Z,31.55
2019-03-22T03:08:02.234Z,32.67
2019-03-22T03:08:48.912Z,33.08
2019-03-22T03:09:35.140Z,32.58
2019-03-22T03:10:21.421Z,30.62
2019-03-22T03:11:07.991Z,33.08
2019-03-22T03:11:54.720Z,30.77
2019-03-22T03:12:40.907Z,30.88
2019-03-22T03:13:27.627Z,30.17
2019-03-22T03:14:13.842Z,32.23
2019-03-22T03:15:00.026Z,31.57
2019-03-22T03:15:46.721Z,31.60
2019-03-22T03:16:33.427Z,31.17
2019-03-22T03:17:20.122Z,32.23
2019-03-22T03:18:06.363Z,33.33
2019-03-22T03:18:53.026Z,30.40
2019-03-22T03:19:39.714Z,30.65
2019-03-22T03:20:25.956Z,30.23
2019-03-22T03:21:12.726Z,30.37
2019-03-22T03:21:59.329Z,29.85
2019-03-22T03:22:46.129Z,31.02
2019-03-22T03:23:32.765Z,29.90
2019-03-22T03:24:19.324Z,30.32
2019-03-22T03:25:06.881Z,29.48
2019-03-22T03:25:53.293Z,29.65
2019-03-22T03:26:40.051Z,30.40
2019-03-22T03:27:26.307Z,30.55
2019-03-22T03:28:12.687Z,29.90
2019-03-22T03:28:59.321Z,29.52
2019-03-22T03:29:45.574Z,29.45
2019-03-22T03:30:32.205Z,30.20
2019-03-22T03:31:18.997Z,31.35
2019-03-22T03:32:05.639Z,28.92
2019-03-22T03:32:52.226Z,29.45
2019-03-22T03:33:38.924Z,31.25
2019-03-22T03:34:25.505Z,28.87
2019-03-22T03:35:12.289Z,28.60
2019-03-22T03:35:58.856Z,30.10
2019-03-22T03:36:45.544Z,28.60
2019-03-22T03:37:32.099Z,28.38
2019-03-22T03:38:18.931Z,30.00
2019-03-22T03:39:07.426Z,27.77
2019-03-22T03:39:54.022Z,27.90
2019-03-22T03:40:40.671Z,27.70
2019-03-22T03:41:27.012Z,28.20
2019-03-22T03:42:13.248Z,30.80
2019-03-22T03:42:59.636Z,29.65
2019-03-22T03:43:45.908Z,30.32
2019-03-22T03:44:32.218Z,29.57
2019-03-22T03:45:32.877Z,29.77
2019-03-22T03:46:19.398Z,28.57
2019-03-22T03:47:05.760Z,30.95
2019-03-22T03:47:51.962Z,30.37
2019-03-22T03:48:38.248Z,27.73
2019-03-22T03:49:24.932Z,29.02
2019-03-22T03:50:11.828Z,28.70
2019-03-22T03:50:58.440Z,30.35
2019-03-22T03:51:44.628Z,29.67
2019-03-22T03:52:30.910Z,29.70
2019-03-22T03:53:17.596Z,27.45
2019-03-22T03:54:03.840Z,30.97
2019-03-22T03:54:50.103Z,29.07
2019-03-22T03:55:36.907Z,29.37
2019-03-22T03:56:23.392Z,28.70
2019-03-22T03:57:09.567Z,30.15
2019-03-22T03:57:55.786Z,29.20
2019-03-22T03:58:52.291Z,29.18
2019-03-22T03:59:30.188Z,29.42
2019-03-22T04:00:16.455Z,30.75
2019-03-22T04:01:03.171Z,29.35
2019-03-22T04:01:49.871Z,28.70
2019-03-22T04:02:36.681Z,27.07
2019-03-22T04:03:23.299Z,33.28
2019-03-22T04:04:09.540Z,29.30
2019-03-22T04:04:55.703Z,30.45
2019-03-22T04:05:42.588Z,28.40
2019-03-22T04:06:29.072Z,29.18
2019-03-22T04:07:15.746Z,29.60
2019-03-22T04:08:01.964Z,30.32
2019-03-22T04:08:48.236Z,30.48
2019-03-22T04:09:34.608Z,30.85
2019-03-22T04:10:21.286Z,31.77
2019-03-22T04:11:08.110Z,28.50
2019-03-22T04:11:54.559Z,29.65
2019-03-22T04:12:41.299Z,29.02
2019-03-22T04:13:27.559Z,29.05
2019-03-22T04:14:13.845Z,28.32
2019-03-22T04:15:00.163Z,27.58
2019-03-22T04:15:47.017Z,26.75
2019-03-22T04:16:33.814Z,29.27
2019-03-22T04:17:20.203Z,27.62
2019-03-22T04:18:07.156Z,27.62
2019-03-22T04:18:53.931Z,27.55
2019-03-22T04:19:40.734Z,28.67
2019-03-22T04:20:27.121Z,27.87
2019-03-22T04:21:13.507Z,26.68
2019-03-22T04:22:00.362Z,28.40
2019-03-22T04:22:46.763Z,29.90
2019-03-22T04:23:33.500Z,28.32
2019-03-22T04:24:19.747Z,31.07
2019-03-22T04:25:06.220Z,29.70
2019-03-22T04:25:52.680Z,29.65
2019-03-22T04:26:39.322Z,30.02
2019-03-22T04:27:25.518Z,26.82
2019-03-22T04:28:11.741Z,28.40
2019-03-22T04:29:07.498Z,27.02
2019-03-22T04:29:46.632Z,27.80
2019-03-22T04:30:33.501Z,26.85
2019-03-22T04:31:19.724Z,26.40
2019-03-22T04:32:05.952Z,28.12
2019-03-22T04:32:52.655Z,27.73
2019-03-22T04:33:39.371Z,27.42
2019-03-22T04:34:25.611Z,28.25
2019-03-22T04:35:30.800Z,27.50
2019-03-22T04:36:17.272Z,25.88
2019-03-22T04:37:03.488Z,26.52
2019-03-22T04:37:49.695Z,26.17
2019-03-22T04:38:35.953Z,26.52
2019-03-22T04:39:22.623Z,26.57
2019-03-22T04:40:21.661Z,26.70
2019-03-22T04:41:08.248Z,26.77
2019-03-22T04:41:54.429Z,26.48
2019-03-22T04:42:40.619Z,25.40
2019-03-22T04:43:26.887Z,26.25
2019-03-22T04:44:13.116Z,27.70
2019-03-22T04:44:59.411Z,25.65
2019-03-22T04:45:46.795Z,25.00
2019-03-22T04:46:33.613Z,26.62
2019-03-22T04:47:20.861Z,24.87
2019-03-22T04:48:13.146Z,25.05
2019-03-22T04:49:00.132Z,26.55
2019-03-22T04:49:47.923Z,25.45
2019-03-22T04:50:37.002Z,24.55
2019-03-22T04:51:24.416Z,24.05
2019-03-22T04:52:11.382Z,24.98
2019-03-22T04:52:58.996Z,24.90
2019-03-22T04:53:52.140Z,26.30
2019-03-22T04:54:40.524Z,26.30
2019-03-22T04:55:27.982Z,26.25
2019-03-22T04:56:18.214Z,24.65
2019-03-22T04:57:07.369Z,26.25
2019-03-22T04:57:53.988Z,26.62
2019-03-22T04:58:42.840Z,23.30
2019-03-22T04:59:30.392Z,26.40
2019-03-22T05:00:17.348Z,23.42
2019-03-22T05:01:04.926Z,23.87
2019-03-22T05:01:54.714Z,24.35
2019-03-22T05:02:42.003Z,24.32
2019-03-22T05:03:29.951Z,24.30
2019-03-22T05:04:17.691Z,26.40
2019-03-22T05:05:04.545Z,24.32
2019-03-22T05:05:51.685Z,27.07
2019-03-22T05:06:38.839Z,25.52
2019-03-22T05:07:25.254Z,27.73
2019-03-22T05:08:13.087Z,28.62
2019-03-22T05:09:00.560Z,26.90
2019-03-22T05:09:48.102Z,26.42
2019-03-22T05:10:35.567Z,28.75
2019-03-22T05:11:23.217Z,29.82
2019-03-22T05:12:14.149Z,30.40
2019-03-22T05:13:01.231Z,28.27
2019-03-22T05:13:51.676Z,28.05
2019-03-22T05:14:39.948Z,28.25
2019-03-22T05:15:27.461Z,29.32
2019-03-22T05:16:16.035Z,28.15
2019-03-22T05:17:05.016Z,27.10
2019-03-22T05:17:52.096Z,29.98
2019-03-22T05:18:40.001Z,30.00
2019-03-22T05:19:30.067Z,28.65
2019-03-22T05:20:17.820Z,28.92
2019-03-22T05:21:05.066Z,28.85
2019-03-22T05:21:52.719Z,28.42
2019-03-22T05:22:41.463Z,28.75
2019-03-22T05:23:29.518Z,29.45
2019-03-22T05:24:18.350Z,29.15
2019-03-22T05:25:05.159Z,28.42
2019-03-22T05:25:54.702Z,29.77
2019-03-22T05:26:41.609Z,29.42
2019-03-22T05:27:29.131Z,29.42
2019-03-22T05:28:16.024Z,29.00
2019-03-22T05:29:03.658Z,26.97
2019-03-22T05:29:53.455Z,28.00
2019-03-22T05:31:22.145Z,28.42
2019-03-22T05:32:10.579Z,27.30
2019-03-22T05:32:57.019Z,26.95
2019-03-22T05:33:43.783Z,27.22
2019-03-22T05:34:30.195Z,27.58
2019-03-22T05:35:16.657Z,27.02
2019-03-22T05:36:03.364Z,27.40
2019-03-22T05:36:49.609Z,26.87
2019-03-22T05:37:36.304Z,27.62
2019-03-22T05:38:23.155Z,27.75
2019-03-22T05:39:10.250Z,26.40
2019-03-22T05:39:56.945Z,27.70
2019-03-22T05:40:43.460Z,26.37
2019-03-22T05:41:29.713Z,25.77
2019-03-22T05:42:16.026Z,25.52
2019-03-22T05:43:02.849Z,25.85
2019-03-22T05:43:49.525Z,25.02
2019-03-22T05:44:36.162Z,25.32
2019-03-22T05:45:22.452Z,25.48
2019-03-22T05:46:08.706Z,26.10
2019-03-22T05:46:55.672Z,27.32
2019-03-22T05:47:42.552Z,29.40
2019-03-22T05:48:29.621Z,26.12
2019-03-22T05:49:16.113Z,27.30
2019-03-22T05:50:03.516Z,27.58
2019-03-22T05:50:50.106Z,28.92
2019-03-22T05:51:36.939Z,28.80
2019-03-22T05:52:23.796Z,26.87
2019-03-22T05:53:10.077Z,26.82
2019-03-22T05:53:56.935Z,26.35
2019-03-22T05:54:43.344Z,27.35
2019-03-22T05:55:29.666Z,27.65
2019-03-22T05:56:15.963Z,28.27
2019-03-22T05:57:12.760Z,29.98
2019-03-22T05:57:51.157Z,28.57
2019-03-22T05:58:37.909Z,28.00
2019-03-22T05:59:24.796Z,28.67
2019-03-22T06:00:13.432Z,27.75
2019-03-22T06:00:59.949Z,28.90
2019-03-22T06:01:46.300Z,28.12
2019-03-22T06:02:32.725Z,29.20
2019-03-22T06:03:19.467Z,27.77
2019-03-22T06:04:06.324Z,29.27
2019-03-22T06:04:52.660Z,29.65
2019-03-22T06:05:38.978Z,31.48
2019-03-22T06:06:25.276Z,30.10
2019-03-22T06:07:12.031Z,29.87
2019-03-22T06:07:59.132Z,30.92
2019-03-22T06:08:45.725Z,31.07
2019-03-22T06:09:31.971Z,31.25
2019-03-22T06:10:18.124Z,30.12
2019-03-22T06:11:04.325Z,31.05
2019-03-22T06:11:50.582Z,29.65
2019-03-22T06:12:37.211Z,28.52
2019-03-22T06:13:23.415Z,28.92
2019-03-22T06:14:10.111Z,28.25
2019-03-22T06:14:56.858Z,28.85
2019-03-22T06:15:43.493Z,28.27
2019-03-22T06:16:29.753Z,28.77
2019-03-22T06:17:16.445Z,27.70
2019-03-22T06:18:03.150Z,27.82
2019-03-22T06:18:50.432Z,27.70
2019-03-22T06:19:37.027Z,28.70
2019-03-22T06:20:23.181Z,28.02
2019-03-22T06:21:09.369Z,27.10
2019-03-22T06:21:55.983Z,27.70
2019-03-22T06:22:42.708Z,27.32
2019-03-22T06:23:28.864Z,27.58
2019-03-22T06:24:15.016Z,25.80
2019-03-22T06:25:01.179Z,27.90
2019-03-22T06:25:48.023Z,28.67
2019-03-22T06:26:34.240Z,30.40
2019-03-22T06:27:21.040Z,27.62
2019-03-22T06:28:07.265Z,28.05
2019-03-22T06:28:53.551Z,28.07
2019-03-22T06:29:39.931Z,28.17
2019-03-22T06:30:26.571Z,28.07
2019-03-22T06:31:12.875Z,28.30
2019-03-22T06:31:59.778Z,29.40
2019-03-22T06:32:46.581Z,28.83
2019-03-22T06:33:32.851Z,29.35
2019-03-22T06:34:19.133Z,30.15
2019-03-22T06:35:06.096Z,28.83
2019-03-22T06:35:52.726Z,30.52
2019-03-22T06:36:39.213Z,30.00
2019-03-22T06:37:25.903Z,30.08
2019-03-22T06:38:12.378Z,29.80
2019-03-22T06:38:58.826Z,30.43
2019-03-22T06:39:45.106Z,29.50
2019-03-22T06:40:31.447Z,30.30
2019-03-22T06:41:18.265Z,31.35
2019-03-22T06:42:05.008Z,30.10
2019-03-22T06:42:51.229Z,29.12
2019-03-22T06:43:37.496Z,29.40
2019-03-22T06:44:23.684Z,29.67
2019-03-22T06:45:09.976Z,30.40
2019-03-22T06:45:56.435Z,29.27
2019-03-22T06:46:42.611Z,28.98
2019-03-22T06:47:28.893Z,30.77
2019-03-22T06:48:15.478Z,30.70
2019-03-22T06:49:02.359Z,29.05
2019-03-22T06:49:48.973Z,29.35
2019-03-22T06:50:35.534Z,28.60
2019-03-22T06:51:21.675Z,29.45
2019-03-22T06:52:07.875Z,29.80
2019-03-22T06:52:54.603Z,30.15
2019-03-22T06:53:40.809Z,28.32
2019-03-22T06:54:31.778Z,30.30
2019-03-22T06:55:15.172Z,29.20
2019-03-22T06:56:01.452Z,30.17
2019-03-22T06:56:47.655Z,29.67
2019-03-22T06:57:33.892Z,28.85
2019-03-22T06:58:20.248Z,30.60
2019-03-22T06:59:07.011Z,28.77
2019-03-22T07:00:05.537Z,28.62
2019-03-22T07:00:41.877Z,28.95
2019-03-22T07:01:28.546Z,28.90
2019-03-22T07:02:15.224Z,30.52
2019-03-22T07:03:01.548Z,29.20
2019-03-22T07:03:48.311Z,28.02
2019-03-22T07:04:34.678Z,28.77
2019-03-22T07:05:20.866Z,29.18
2019-03-22T07:06:07.211Z,27.25
2019-03-22T07:06:53.620Z,28.50
2019-03-22T07:07:40.218Z,28.80
2019-03-22T07:08:26.931Z,28.42
2019-03-22T07:09:13.294Z,28.70
2019-03-22T07:09:59.563Z,29.27
2019-03-22T07:10:45.954Z,28.42
2019-03-22T07:11:32.710Z,29.18
2019-03-22T07:12:19.039Z,28.75
2019-03-22T07:13:05.398Z,28.02
2019-03-22T07:13:52.301Z,26.85
2019-03-22T07:14:38.678Z,28.05
2019-03-22T07:15:25.037Z,28.02
2019-03-22T07:16:11.282Z,26.77
2019-03-22T07:16:58.900Z,27.00
2019-03-22T07:17:45.615Z,27.67
2019-03-22T07:18:32.414Z,26.77
2019-03-22T07:19:19.210Z,27.07
2019-03-22T07:20:05.847Z,27.15
2019-03-22T07:20:52.135Z,29.42
2019-03-22T07:21:38.770Z,27.17
2019-03-22T07:22:25.010Z,27.65
2019-03-22T07:23:11.270Z,26.48
2019-03-22T07:23:57.894Z,28.25
2019-03-22T07:24:44.712Z,26.55
2019-03-22T07:25:31.345Z,28.07
2019-03-22T07:26:17.579Z,25.65
2019-03-22T07:27:04.021Z,27.25
2019-03-22T07:27:50.469Z,25.77
2019-03-22T07:28:36.697Z,27.45
2019-03-22T07:29:22.818Z,27.20
2019-03-22T07:30:18.136Z,26.68
2019-03-22T07:30:57.408Z,25.90
2019-03-22T07:31:44.053Z,26.05
2019-03-22T07:32:30.314Z,26.00
2019-03-22T07:33:16.733Z,26.40
2019-03-22T07:34:03.677Z,24.65
2019-03-22T07:34:50.055Z,25.00
2019-03-22T07:35:36.809Z,23.60
2019-03-22T07:36:23.502Z,23.42
2019-03-22T07:37:09.799Z,24.12
2019-03-22T07:37:56.601Z,21.57
2019-03-22T07:38:43.278Z,21.68
2019-03-22T07:39:30.035Z,23.35
2019-03-22T07:40:16.297Z,22.52
2019-03-22T07:41:02.589Z,23.70
2019-03-22T07:41:49.276Z,23.67
2019-03-22T07:42:35.775Z,24.18
2019-03-22T07:43:22.375Z,24.82
2019-03-22T07:44:09.102Z,23.80
2019-03-22T07:44:55.726Z,23.40
2019-03-22T07:45:42.615Z,22.80
2019-03-22T07:46:28.957Z,22.25
2019-03-22T07:47:15.640Z,22.25
2019-03-22T07:48:02.315Z,22.13
2019-03-22T07:48:50.788Z,22.30
2019-03-22T07:49:37.603Z,23.55
2019-03-22T07:50:24.141Z,21.50
2019-03-22T07:51:10.719Z,20.88
2019-03-22T07:51:57.481Z,21.62
2019-03-22T07:52:44.150Z,20.83
2019-03-22T07:53:31.241Z,20.27
2019-03-22T07:54:17.905Z,20.00
2019-03-22T07:55:04.931Z,21.20
2019-03-22T07:55:51.373Z,20.00
2019-03-22T07:56:38.107Z,19.63
2019-03-22T07:57:24.959Z,20.03
2019-03-22T07:58:11.638Z,19.47
2019-03-22T07:58:58.492Z,18.17
2019-03-22T07:59:46.416Z,18.23
2019-03-22T08:00:36.021Z,18.27
2019-03-22T08:01:22.497Z,18.63
2019-03-22T08:02:11.015Z,19.23
2019-03-22T08:02:57.980Z,19.17
2019-03-22T08:03:44.501Z,19.37
2019-03-22T08:04:31.312Z,18.33
2019-03-22T08:05:18.123Z,18.23
2019-03-22T08:06:04.787Z,18.37
2019-03-22T08:06:51.592Z,19.27
2019-03-22T08:07:38.471Z,18.47
2019-03-22T08:08:25.008Z,18.13
2019-03-22T08:09:11.664Z,18.10
2019-03-22T08:09:58.153Z,18.70
2019-03-22T08:10:44.750Z,17.03
2019-03-22T08:11:31.534Z,18.13
2019-03-22T08:12:19.502Z,18.07
2019-03-22T08:13:05.971Z,18.33
2019-03-22T08:13:52.710Z,18.27
2019-03-22T08:14:39.441Z,17.50
2019-03-22T08:15:30.570Z,18.17
2019-03-22T08:16:16.918Z,17.53
2019-03-22T08:17:03.719Z,18.07
2019-03-22T08:17:50.254Z,17.30
2019-03-22T08:18:36.553Z,17.87
2019-03-22T08:19:23.189Z,17.47
2019-03-22T08:20:09.942Z,17.80
2019-03-22T08:20:56.668Z,19.10
2019-03-22T08:21:43.089Z,17.87
2019-03-22T08:22:29.365Z,17.27
2019-03-22T08:23:20.564Z,17.20
2019-03-22T08:24:07.095Z,16.83
2019-03-22T08:24:53.413Z,17.13
2019-03-22T08:25:43.383Z,16.60
2019-03-22T08:26:28.400Z,17.90
2019-03-22T08:27:15.206Z,17.30
2019-03-22T08:28:01.776Z,16.77
2019-03-22T08:28:48.474Z,15.80
2019-03-22T08:29:35.186Z,14.90
2019-03-22T08:30:21.998Z,14.37
2019-03-22T08:31:08.695Z,15.80
2019-03-22T08:31:55.352Z,15.85
2019-03-22T08:32:41.530Z,16.27
2019-03-22T08:33:28.820Z,14.83
2019-03-22T08:34:15.399Z,15.20
2019-03-22T08:35:02.058Z,15.13
2019-03-22T08:35:48.717Z,15.83
2019-03-22T08:36:34.875Z,14.10
2019-03-22T08:37:21.155Z,14.18
2019-03-22T08:38:11.583Z,15.28
2019-03-22T08:38:58.272Z,14.20
2019-03-22T08:39:44.939Z,14.35
2019-03-22T08:40:33.512Z,13.83
2019-03-22T08:41:20.270Z,14.45
2019-03-22T08:42:07.210Z,13.72
2019-03-22T08:42:53.513Z,12.18
2019-03-22T08:43:40.168Z,13.32
2019-03-22T08:44:26.792Z,12.55
2019-03-22T08:45:13.573Z,12.53
2019-03-22T08:46:00.224Z,12.55
2019-03-22T08:46:46.709Z,13.00
2019-03-22T08:47:34.640Z,13.45
2019-03-22T08:48:21.403Z,14.28
2019-03-22T08:49:09.662Z,14.13
2019-03-22T08:49:56.447Z,13.03
2019-03-22T08:50:43.040Z,13.78
2019-03-22T08:51:29.979Z,12.63
2019-03-22T08:52:16.520Z,11.97
2019-03-22T08:53:03.334Z,12.88
2019-03-22T08:53:55.196Z,12.80
2019-03-22T08:54:38.608Z,12.55
2019-03-22T08:55:25.149Z,12.78
2019-03-22T08:56:11.848Z,12.95
2019-03-22T08:56:58.496Z,12.80
2019-03-22T08:57:45.217Z,13.95
2019-03-22T08:58:31.820Z,13.38
2019-03-22T08:59:18.448Z,13.03
2019-03-22T09:00:06.426Z,12.73
2019-03-22T09:00:57.630Z,13.18
2019-03-22T09:01:41.643Z,13.85
2019-03-22T09:02:28.253Z,14.65
2019-03-22T09:03:15.061Z,15.53
2019-03-22T09:04:03.681Z,15.18
2019-03-22T09:04:50.332Z,15.18
2019-03-22T09:05:37.255Z,14.65
2019-03-22T09:06:24.036Z,14.90
2019-03-22T09:07:10.339Z,14.70
2019-03-22T09:07:56.801Z,14.90
2019-03-22T09:08:43.513Z,13.38
2019-03-22T09:09:40.883Z,14.03
2019-03-22T09:10:19.258Z,14.40
2019-03-22T09:11:08.420Z,13.30
2019-03-22T09:11:55.204Z,13.80
2019-03-22T09:12:41.762Z,14.33
2019-03-22T09:13:28.386Z,14.03
2019-03-22T09:14:14.911Z,14.03
2019-03-22T09:15:01.490Z,12.70
2019-03-22T09:15:48.147Z,13.88
2019-03-22T09:16:34.601Z,13.83
2019-03-22T09:17:22.124Z,13.38
2019-03-22T09:18:08.974Z,13.28
2019-03-22T09:18:55.904Z,13.75
2019-03-22T09:19:42.692Z,13.75
2019-03-22T09:20:29.580Z,13.53
2019-03-22T09:21:16.725Z,13.55
2019-03-22T09:22:06.331Z,13.15
2019-03-22T09:22:53.146Z,13.15
2019-03-22T09:23:39.676Z,13.60
2019-03-22T09:24:38.546Z,13.88
2019-03-22T09:25:15.274Z,12.23
2019-03-22T09:26:02.042Z,11.63
2019-03-22T09:26:48.519Z,13.70
2019-03-22T09:27:36.537Z,12.30
2019-03-22T09:28:25.099Z,12.65
2019-03-22T09:29:11.813Z,13.03
2019-03-22T09:29:58.559Z,12.33
2019-03-22T09:30:44.891Z,13.05
2019-03-22T09:31:31.503Z,13.62
2019-03-22T09:32:17.698Z,14.03
2019-03-22T09:33:04.614Z,14.25
2019-03-22T09:33:51.222Z,14.43
2019-03-22T09:34:38.015Z,13.05
2019-03-22T09:35:24.619Z,13.72
2019-03-22T09:36:11.300Z,12.93
2019-03-22T09:36:57.545Z,12.43
2019-03-22T09:37:44.232Z,14.15
2019-03-22T09:38:30.857Z,12.05
2019-03-22T09:39:17.066Z,12.95
2019-03-22T09:40:04.147Z,13.10
2019-03-22T09:40:50.819Z,13.05
2019-03-22T09:41:37.106Z,13.30
2019-03-22T09:42:23.715Z,13.10
2019-03-22T09:43:09.984Z,13.43
2019-03-22T09:43:56.736Z,13.22
2019-03-22T09:44:44.210Z,11.78
2019-03-22T09:45:31.265Z,12.70
2019-03-22T09:46:17.431Z,12.75
2019-03-22T09:47:04.233Z,12.68
2019-03-22T09:47:50.926Z,12.85
2019-03-22T09:48:37.589Z,12.05
2019-03-22T09:49:23.842Z,13.10
2019-03-22T09:50:10.332Z,13.20
2019-03-22T09:50:56.920Z,12.03
2019-03-22T09:51:43.708Z,11.40
2019-03-22T09:52:30.404Z,13.15
2019-03-22T09:53:16.993Z,12.05
2019-03-22T09:54:03.786Z,12.37
2019-03-22T09:54:50.052Z,12.10
2019-03-22T09:55:36.467Z,12.82
2019-03-22T09:56:23.246Z,12.85
2019-03-22T09:57:10.078Z,12.13
2019-03-22T09:57:57.083Z,12.18
2019-03-22T09:58:43.560Z,12.45
2019-03-22T09:59:29.852Z,12.75
2019-03-22T10:00:28.851Z,11.78
2019-03-22T10:01:23.602Z,12.80
2019-03-22T10:02:03.258Z,12.07
2019-03-22T10:02:49.984Z,11.97
2019-03-22T10:03:36.638Z,12.23
2019-03-22T10:04:23.091Z,12.07
2019-03-22T10:05:09.603Z,11.43
2019-03-22T10:05:56.305Z,11.03
2019-03-22T10:06:42.910Z,10.80
2019-03-22T10:07:29.544Z,12.37
2019-03-22T10:08:15.751Z,11.95
2019-03-22T10:09:05.244Z,11.80
2019-03-22T10:09:50.083Z,11.40
2019-03-22T10:10:36.714Z,10.70